createdAt,value
2019-02-17T00:00:13.725Z,36.60
2019-02-17T00:02:43.665Z,37.13
2019-02-17T00:05:12.022Z,36.20
2019-02-17T00:07:40.382Z,36.77
2019-02-17T00:10:08.737Z,38.27
2019-02-17T00:12:37.086Z,36.27
2019-02-17T00:15:07.314Z,35.10
2019-02-17T00:17:35.672Z,34.70
2019-02-17T00:20:04.682Z,34.37
2019-02-17T00:22:33.067Z,38.87
2019-02-17T00:25:01.405Z,35.23
2019-02-17T00:27:31.138Z,39.10
2019-02-17T00:29:59.489Z,34.97
2019-02-17T00:32:27.837Z,36.37
2019-02-17T00:34:56.185Z,36.43
2019-02-17T00:37:24.533Z,36.23
2019-02-17T00:39:52.893Z,36.83
2019-02-17T00:42:21.241Z,33.30
2019-02-17T00:44:49.585Z,35.77
2019-02-17T00:47:17.942Z,39.73
2019-02-17T00:49:46.282Z,35.33
2019-02-17T00:52:14.633Z,35.20
2019-02-17T00:54:42.982Z,39.43
2019-02-17T00:57:11.329Z,29.70
2019-02-17T00:59:39.686Z,37.33
2019-02-17T01:02:08.891Z,36.80
2019-02-17T01:04:37.251Z,36.83
2019-02-17T01:07:05.670Z,33.67
2019-02-17T01:09:34.009Z,36.53
2019-02-17T01:12:02.368Z,35.50
2019-02-17T01:14:30.709Z,38.40
2019-02-17T01:16:59.065Z,34.33
2019-02-17T01:19:27.402Z,34.50
2019-02-17T01:21:55.744Z,34.83
2019-02-17T01:24:24.518Z,34.67
2019-02-17T01:26:52.861Z,30.10
2019-02-17T01:29:21.221Z,34.53
2019-02-17T01:31:49.560Z,32.53
2019-02-17T01:34:17.919Z,32.77
2019-02-17T01:36:46.289Z,31.33
2019-02-17T01:39:14.626Z,32.03
2019-02-17T01:41:42.993Z,34.87
2019-02-17T01:44:11.341Z,33.43
2019-02-17T01:46:39.689Z,35.37
2019-02-17T01:49:08.041Z,36.73
2019-02-17T01:51:36.378Z,36.03
2019-02-17T01:54:04.778Z,37.50
2019-02-17T01:56:33.150Z,34.87
2019-02-17T01:59:01.505Z,34.63
2019-02-17T02:01:29.872Z,40.73
2019-02-17T02:03:58.209Z,37.13
2019-02-17T02:06:26.558Z,36.63
2019-02-17T02:08:54.895Z,37.20
2019-02-17T02:11:23.258Z,35.10
2019-02-17T02:13:51.596Z,36.97
2019-02-17T02:16:20.374Z,42.43
2019-02-17T02:18:48.720Z,38.33
2019-02-17T02:21:17.069Z,37.80
2019-02-17T02:23:45.410Z,37.40
2019-02-17T02:26:13.763Z,39.43
2019-02-17T02:28:42.118Z,36.00
2019-02-17T02:31:10.606Z,36.23
2019-02-17T02:33:38.962Z,34.30
2019-02-17T02:36:07.646Z,35.80
2019-02-17T02:38:36.015Z,37.37
2019-02-17T02:41:04.370Z,39.13
2019-02-17T02:43:33.788Z,35.93
2019-02-17T02:46:02.127Z,33.93
2019-02-17T02:48:30.558Z,35.77
2019-02-17T02:50:58.906Z,34.53
2019-02-17T02:53:27.249Z,37.27
2019-02-17T02:55:55.585Z,34.70
2019-02-17T02:58:23.946Z,35.37
2019-02-17T03:00:52.290Z,35.40
2019-02-17T03:03:20.633Z,33.20
2019-02-17T03:05:53.546Z,36.90
2019-02-17T03:08:21.908Z,31.63
2019-02-17T03:10:50.246Z,39.40
2019-02-17T03:13:18.611Z,39.60
2019-02-17T03:15:46.954Z,35.97
2019-02-17T03:18:15.303Z,34.77
2019-02-17T03:20:43.654Z,36.23
2019-02-17T03:23:12.003Z,34.83
2019-02-17T03:25:40.355Z,35.57
2019-02-17T03:28:08.994Z,36.27
2019-02-17T03:30:37.361Z,32.57
2019-02-17T03:33:05.774Z,33.37
2019-02-17T03:35:34.116Z,37.20
2019-02-17T03:38:02.464Z,36.00
2019-02-17T03:40:30.806Z,34.17
2019-02-17T03:42:59.170Z,33.63
2019-02-17T03:45:27.521Z,34.10
2019-02-17T03:47:55.874Z,36.17
2019-02-17T03:50:24.220Z,34.63
2019-02-17T03:52:53.839Z,35.33
2019-02-17T03:55:22.187Z,39.53
2019-02-17T03:57:50.539Z,34.10
2019-02-17T04:00:18.900Z,36.87
2019-02-17T04:02:47.306Z,33.10
2019-02-17T04:05:16.647Z,34.77
2019-02-17T04:07:45.018Z,34.43
2019-02-17T04:10:13.847Z,32.60
2019-02-17T04:12:42.205Z,36.33
2019-02-17T04:15:10.622Z,40.97
2019-02-17T04:17:38.956Z,36.53
2019-02-17T04:20:07.783Z,35.10
2019-02-17T04:22:36.119Z,35.17
2019-02-17T04:25:05.132Z,34.23
2019-02-17T04:27:33.486Z,32.63
2019-02-17T04:30:01.900Z,35.27
2019-02-17T04:32:31.918Z,36.13
2019-02-17T04:35:00.279Z,35.50
2019-02-17T04:37:28.613Z,39.13
2019-02-17T04:39:58.238Z,38.60
2019-02-17T04:42:26.598Z,38.07
2019-02-17T04:44:54.944Z,35.57
2019-02-17T04:47:23.299Z,34.23
2019-02-17T04:49:51.645Z,34.03
2019-02-17T04:52:19.994Z,34.40
2019-02-17T04:54:48.340Z,38.10
2019-02-17T04:57:16.698Z,34.33
2019-02-17T04:59:46.549Z,35.90
2019-02-17T05:02:14.907Z,35.60
2019-02-17T05:04:43.241Z,33.67
2019-02-17T05:07:11.630Z,37.53
2019-02-17T05:09:39.974Z,38.00
2019-02-17T05:12:08.338Z,32.80
2019-02-17T05:14:36.688Z,31.03
2019-02-17T05:17:05.029Z,32.07
2019-02-17T05:19:33.406Z,36.33
2019-02-17T05:22:01.751Z,34.93
2019-02-17T05:24:30.108Z,35.63
2019-02-17T05:26:58.443Z,34.90
2019-02-17T05:29:26.795Z,33.07
2019-02-17T05:31:55.149Z,31.67
2019-02-17T05:34:23.493Z,31.00
2019-02-17T05:36:51.852Z,33.30
2019-02-17T05:39:20.210Z,35.03
2019-02-17T05:41:48.553Z,35.70
2019-02-17T05:44:16.907Z,38.93
2019-02-17T05:46:45.259Z,33.27
2019-02-17T05:49:13.602Z,33.13
2019-02-17T05:51:41.974Z,35.87
2019-02-17T05:54:10.318Z,36.53
2019-02-17T05:56:38.673Z,30.60
2019-02-17T05:59:07.018Z,30.53
2019-02-17T06:01:35.378Z,31.07
2019-02-17T06:04:04.910Z,29.73
2019-02-17T06:06:33.265Z,34.47
2019-02-17T06:09:01.615Z,31.77
2019-02-17T06:11:31.638Z,31.90
2019-02-17T06:13:59.994Z,35.73
2019-02-17T06:16:28.348Z,27.07
2019-02-17T06:18:56.773Z,32.37
2019-02-17T06:21:25.135Z,33.60
2019-02-17T06:23:53.486Z,35.57
2019-02-17T06:26:21.839Z,33.43
2019-02-17T06:28:50.192Z,27.73
2019-02-17T06:31:18.529Z,32.73
2019-02-17T06:33:46.873Z,27.43
2019-02-17T06:36:15.218Z,33.67
2019-02-17T06:38:43.581Z,32.80
2019-02-17T06:41:11.913Z,33.57
2019-02-17T06:43:40.277Z,32.17
2019-02-17T06:46:10.254Z,33.60
2019-02-17T06:48:38.610Z,29.07
2019-02-17T06:51:06.954Z,31.83
2019-02-17T06:53:35.308Z,33.53
2019-02-17T06:56:05.304Z,31.07
2019-02-17T06:58:33.730Z,34.57
2019-02-17T07:01:02.078Z,31.73
2019-02-17T07:03:30.434Z,31.47
2019-02-17T07:06:15.452Z,31.13
2019-02-17T07:08:43.802Z,32.93
2019-02-17T07:11:12.150Z,31.87
2019-02-17T07:13:41.675Z,31.87
2019-02-17T07:16:10.033Z,33.60
2019-02-17T07:18:39.369Z,31.00
2019-02-17T07:21:07.706Z,32.10
2019-02-17T07:23:36.057Z,32.40
2019-02-17T07:26:04.418Z,30.43
2019-02-17T07:28:32.768Z,30.83
2019-02-17T07:31:01.109Z,27.70
2019-02-17T07:33:29.452Z,34.23
2019-02-17T07:35:57.810Z,31.43
2019-02-17T07:38:26.189Z,31.33
2019-02-17T07:40:54.529Z,31.73
2019-02-17T07:43:22.893Z,32.00
2019-02-17T07:45:51.233Z,33.70
2019-02-17T07:48:19.585Z,33.83
2019-02-17T07:50:47.921Z,33.37
2019-02-17T07:53:16.357Z,32.20
2019-02-17T07:55:44.710Z,31.53
2019-02-17T07:58:13.048Z,36.30
2019-02-17T08:00:41.408Z,31.57
2019-02-17T08:03:09.758Z,32.80
2019-02-17T08:05:38.118Z,31.00
2019-02-17T08:08:06.475Z,35.53
2019-02-17T08:10:34.821Z,36.40
2019-02-17T08:13:03.173Z,32.33
2019-02-17T08:15:31.838Z,33.80
2019-02-17T08:18:00.197Z,35.90
2019-02-17T08:20:28.542Z,32.27
2019-02-17T08:22:56.901Z,38.63
2019-02-17T08:25:25.259Z,33.47
2019-02-17T08:27:53.665Z,35.20
2019-02-17T08:30:22.012Z,34.80
2019-02-17T08:32:50.414Z,32.97
2019-02-17T08:35:18.742Z,35.20
2019-02-17T08:37:48.327Z,33.30
2019-02-17T08:40:16.686Z,29.90
2019-02-17T08:42:48.409Z,36.63
2019-02-17T08:45:16.755Z,31.23
2019-02-17T08:47:45.100Z,32.43
2019-02-17T08:50:13.446Z,34.70
2019-02-17T08:52:42.602Z,33.43
2019-02-17T08:55:10.958Z,33.13
2019-02-17T08:57:39.314Z,36.70
2019-02-17T09:00:11.606Z,35.23
2019-02-17T09:02:40.820Z,34.63
2019-02-17T09:05:09.473Z,36.53
2019-02-17T09:07:37.834Z,34.87
2019-02-17T09:10:07.817Z,32.10
2019-02-17T09:12:36.245Z,35.03
2019-02-17T09:15:06.945Z,34.33
2019-02-17T09:17:35.296Z,31.43
2019-02-17T09:20:05.353Z,37.00
2019-02-17T09:22:33.702Z,34.33
2019-02-17T09:25:02.054Z,33.27
2019-02-17T09:27:30.402Z,39.43
2019-02-17T09:29:58.741Z,35.00
2019-02-17T09:32:27.112Z,32.70
2019-02-17T09:34:55.462Z,35.70
2019-02-17T09:37:23.851Z,34.40
2019-02-17T09:39:52.206Z,34.03
2019-02-17T09:42:20.629Z,37.73
2019-02-17T09:44:48.977Z,35.63
2019-02-17T09:47:17.324Z,40.97
2019-02-17T09:49:45.735Z,33.90
2019-02-17T09:52:14.162Z,37.27
2019-02-17T09:54:42.620Z,33.83
2019-02-17T09:57:11.034Z,35.67
2019-02-17T09:59:39.505Z,36.37
2019-02-17T10:02:07.875Z,39.17
2019-02-17T10:04:36.217Z,34.90
2019-02-17T10:07:04.671Z,36.40
2019-02-17T10:09:33.126Z,39.00
2019-02-17T10:12:01.547Z,42.03
2019-02-17T10:14:29.905Z,33.17
2019-02-17T10:16:58.667Z,35.67
2019-02-17T10:19:27.127Z,42.10
2019-02-17T10:21:55.510Z,35.87
2019-02-17T10:24:23.884Z,36.03
2019-02-17T10:26:52.221Z,39.77
2019-02-17T10:29:20.590Z,37.70
2019-02-17T10:31:48.933Z,41.37
2019-02-17T10:34:17.281Z,38.47
2019-02-17T10:36:45.630Z,38.03
2019-02-17T10:39:15.181Z,37.00
2019-02-17T10:41:44.241Z,34.23
2019-02-17T10:44:12.587Z,36.43
2019-02-17T10:46:40.938Z,33.77
2019-02-17T10:49:09.291Z,30.03
2019-02-17T10:51:38.716Z,36.60
2019-02-17T10:54:07.113Z,37.87
2019-02-17T10:56:35.596Z,39.93
2019-02-17T10:59:05.437Z,34.13
2019-02-17T11:01:33.802Z,37.20
2019-02-17T11:04:03.142Z,34.60
2019-02-17T11:06:31.514Z,36.33
2019-02-17T11:08:59.926Z,32.83
2019-02-17T11:11:28.330Z,32.00
2019-02-17T11:13:56.717Z,37.30
2019-02-17T11:16:25.079Z,33.27
2019-02-17T11:18:54.410Z,36.60
2019-02-17T11:21:22.753Z,32.40
2019-02-17T11:23:51.132Z,33.70
2019-02-17T11:26:21.685Z,34.40
2019-02-17T11:28:50.049Z,34.83
2019-02-17T11:31:18.415Z,32.07
2019-02-17T11:33:47.006Z,31.60
2019-02-17T11:36:15.385Z,32.97
2019-02-17T11:38:43.741Z,34.13
2019-02-17T11:41:12.734Z,36.97
2019-02-17T11:43:41.303Z,35.03
2019-02-17T11:46:09.677Z,36.60
2019-02-17T11:48:38.031Z,33.33
2019-02-17T11:51:06.389Z,31.03
2019-02-17T11:53:34.729Z,33.67
2019-02-17T11:56:03.090Z,34.47
2019-02-17T11:58:32.409Z,37.67
2019-02-17T12:01:00.763Z,33.00
2019-02-17T12:03:29.117Z,35.80
2019-02-17T12:05:57.514Z,32.53
2019-02-17T12:08:25.874Z,31.40
2019-02-17T12:10:54.261Z,30.33
2019-02-17T12:13:22.669Z,31.33
2019-02-17T12:15:51.016Z,34.03
2019-02-17T12:18:19.419Z,28.60
2019-02-17T12:21:04.512Z,34.90
2019-02-17T12:23:40.478Z,28.30
2019-02-17T12:26:13.414Z,32.30
2019-02-17T12:28:46.373Z,28.13
2019-02-17T12:31:16.391Z,30.07
2019-02-17T12:33:44.739Z,30.40
2019-02-17T12:36:13.118Z,33.53
2019-02-17T12:38:41.494Z,38.00
2019-02-17T12:41:09.875Z,31.87
2019-02-17T12:43:38.264Z,28.87
2019-02-17T12:46:06.606Z,32.77
2019-02-17T12:48:34.971Z,33.40
2019-02-17T12:51:03.319Z,33.70
2019-02-17T12:53:31.990Z,28.90
2019-02-17T12:56:00.361Z,30.70
2019-02-17T12:58:30.234Z,30.23
2019-02-17T13:00:58.732Z,28.93
2019-02-17T13:03:28.783Z,29.73
2019-02-17T13:05:57.125Z,30.90
2019-02-17T13:08:25.483Z,29.47
2019-02-17T13:10:53.828Z,36.40
2019-02-17T13:13:22.182Z,29.67
2019-02-17T13:15:50.542Z,27.37
2019-02-17T13:18:18.902Z,33.03
2019-02-17T13:20:47.240Z,30.80
2019-02-17T13:23:16.141Z,36.03
2019-02-17T13:25:45.554Z,28.10
2019-02-17T13:28:15.181Z,28.03
2019-02-17T13:30:43.514Z,31.83
2019-02-17T13:33:11.866Z,28.67
2019-02-17T13:35:40.204Z,26.83
2019-02-17T13:38:08.546Z,29.23
2019-02-17T13:40:36.938Z,27.30
2019-02-17T13:43:05.287Z,29.53
2019-02-17T13:45:33.641Z,30.07
2019-02-17T13:48:01.983Z,29.30
2019-02-17T13:50:31.522Z,27.70
2019-02-17T13:52:59.890Z,27.03
2019-02-17T13:55:28.236Z,28.67
2019-02-17T13:57:56.658Z,25.00
2019-02-17T14:00:26.624Z,30.60
2019-02-17T14:02:55.000Z,23.93
2019-02-17T14:05:23.349Z,32.53
2019-02-17T14:07:51.697Z,24.20
2019-02-17T14:10:20.060Z,27.10
2019-02-17T14:12:49.364Z,26.27
2019-02-17T14:15:18.186Z,24.93
2019-02-17T14:17:46.522Z,27.33
2019-02-17T14:20:14.871Z,26.73
2019-02-17T14:22:43.234Z,29.53
2019-02-17T14:25:11.573Z,26.73
2019-02-17T14:27:39.936Z,23.97
2019-02-17T14:30:09.901Z,24.23
2019-02-17T14:32:38.255Z,24.27
2019-02-17T14:35:06.622Z,25.10
2019-02-17T14:37:36.589Z,23.80
2019-02-17T14:40:11.813Z,26.33
2019-02-17T14:42:40.168Z,24.17
2019-02-17T14:45:10.136Z,22.00
2019-02-17T14:47:38.496Z,21.63
2019-02-17T14:50:07.497Z,24.63
2019-02-17T14:52:35.849Z,21.87
2019-02-17T14:55:05.466Z,25.77
2019-02-17T14:57:33.819Z,24.63
2019-02-17T15:00:02.169Z,24.43
2019-02-17T15:02:30.998Z,21.97
2019-02-17T15:04:59.342Z,23.00
2019-02-17T15:07:27.713Z,23.40
2019-02-17T15:09:56.058Z,18.93
2019-02-17T15:12:24.422Z,22.17
2019-02-17T15:14:52.776Z,23.80
2019-02-17T15:17:21.129Z,21.27
2019-02-17T15:19:49.487Z,23.60
2019-02-17T15:22:17.834Z,21.10
2019-02-17T15:24:46.198Z,27.10
2019-02-17T15:27:14.538Z,18.60
2019-02-17T15:29:42.895Z,24.20
2019-02-17T15:32:11.307Z,20.23
2019-02-17T15:34:39.666Z,22.60
2019-02-17T15:37:08.009Z,19.33
2019-02-17T15:39:36.399Z,22.37
2019-02-17T15:42:05.479Z,24.50
2019-02-17T15:44:33.837Z,24.47
2019-02-17T15:47:02.208Z,21.63
2019-02-17T15:49:30.542Z,21.30
2019-02-17T15:51:58.892Z,19.67
2019-02-17T15:54:27.728Z,19.57
2019-02-17T15:56:56.083Z,20.80
2019-02-17T15:59:25.516Z,21.00
2019-02-17T16:01:53.861Z,24.90
2019-02-17T16:04:28.669Z,23.13
2019-02-17T16:06:52.278Z,18.03
2019-02-17T16:09:20.654Z,20.13
2019-02-17T16:11:49.034Z,23.03
2019-02-17T16:14:17.378Z,18.90
2019-02-17T16:16:45.733Z,20.37
2019-02-17T16:19:14.101Z,19.63
2019-02-17T16:21:42.452Z,18.40
2019-02-17T16:24:11.136Z,25.77
2019-02-17T16:26:39.547Z,20.43
2019-02-17T16:29:08.007Z,19.57
2019-02-17T16:31:36.479Z,18.80
2019-02-17T16:34:04.837Z,21.93
2019-02-17T16:36:33.238Z,20.97
2019-02-17T16:39:01.769Z,27.80
2019-02-17T16:41:32.014Z,20.73
2019-02-17T16:44:00.357Z,22.77
2019-02-17T16:46:28.795Z,23.57
2019-02-17T16:48:57.142Z,18.50
2019-02-17T16:51:25.551Z,20.17
2019-02-17T16:53:53.921Z,20.00
2019-02-17T16:56:22.270Z,21.00
2019-02-17T16:58:50.613Z,20.67
2019-02-17T17:01:19.112Z,21.70
2019-02-17T17:03:47.505Z,19.57
2019-02-17T17:06:15.855Z,21.77
2019-02-17T17:08:44.214Z,20.50
2019-02-17T17:11:12.562Z,21.50
2019-02-17T17:13:40.912Z,25.10
2019-02-17T17:16:09.354Z,25.20
2019-02-17T17:18:37.690Z,20.37
2019-02-17T17:21:06.050Z,25.90
2019-02-17T17:23:34.405Z,23.53
2019-02-17T17:26:02.747Z,22.50
2019-02-17T17:28:31.179Z,24.60
2019-02-17T17:30:59.541Z,20.80
2019-02-17T17:33:27.883Z,22.90
2019-02-17T17:35:56.241Z,22.00
2019-02-17T17:38:24.603Z,19.37
2019-02-17T17:40:52.962Z,22.03
2019-02-17T17:43:21.305Z,18.97
2019-02-17T17:45:49.721Z,24.20
2019-02-17T17:48:19.364Z,23.27
2019-02-17T17:50:47.703Z,22.70
2019-02-17T17:53:16.055Z,20.97
2019-02-17T17:55:44.424Z,19.50
2019-02-17T17:58:12.757Z,20.53
2019-02-17T18:00:43.652Z,19.70
2019-02-17T18:03:11.157Z,20.27
2019-02-17T18:05:39.513Z,22.20
2019-02-17T18:08:08.150Z,26.90
2019-02-17T18:10:36.494Z,22.50
2019-02-17T18:13:04.862Z,23.03
2019-02-17T18:15:33.210Z,20.57
2019-02-17T18:18:01.563Z,21.97
2019-02-17T18:20:29.985Z,21.10
2019-02-17T18:22:58.396Z,18.40
2019-02-17T18:25:26.757Z,20.47
2019-02-17T18:27:55.167Z,21.63
2019-02-17T18:30:23.515Z,19.33
2019-02-17T18:32:51.870Z,21.13
2019-02-17T18:35:20.826Z,20.50
2019-02-17T18:37:49.451Z,26.10
2019-02-17T18:40:18.582Z,23.50
2019-02-17T18:42:48.118Z,20.53
2019-02-17T18:45:16.533Z,21.00
2019-02-17T18:47:44.955Z,18.73
2019-02-17T18:50:16.254Z,20.47
2019-02-17T18:52:45.161Z,22.20
2019-02-17T18:55:13.793Z,22.50
2019-02-17T18:57:50.091Z,20.53
2019-02-17T19:00:20.950Z,17.83
2019-02-17T19:02:49.709Z,20.67
2019-02-17T19:05:20.157Z,18.10
2019-02-17T19:07:48.103Z,19.37
2019-02-17T19:10:16.447Z,20.87
2019-02-17T19:12:44.805Z,18.93
2019-02-17T19:15:14.314Z,21.43
2019-02-17T19:17:42.679Z,21.07
2019-02-17T19:20:12.579Z,20.40
2019-02-17T19:22:40.934Z,26.97
2019-02-17T19:25:09.338Z,22.60
2019-02-17T19:27:37.689Z,21.30
2019-02-17T19:30:10.358Z,18.73
2019-02-17T19:32:38.689Z,25.53
2019-02-17T19:35:08.409Z,30.80
2019-02-17T19:37:36.780Z,25.03
2019-02-17T19:40:06.988Z,20.73
2019-02-17T19:42:35.399Z,21.03
2019-02-17T19:45:04.927Z,17.00
2019-02-17T19:47:33.266Z,16.00
2019-02-17T19:50:01.612Z,19.53
2019-02-17T19:52:29.945Z,15.63
2019-02-17T19:54:58.302Z,12.80
2019-02-17T19:57:26.646Z,14.10
2019-02-17T19:59:55.006Z,19.13
2019-02-17T20:02:24.993Z,13.37
2019-02-17T20:04:54.978Z,13.73
2019-02-17T20:07:23.320Z,12.20
2019-02-17T20:09:51.668Z,12.70
2019-02-17T20:12:20.014Z,12.13
2019-02-17T20:14:48.364Z,13.13
2019-02-17T20:17:16.698Z,11.17
2019-02-17T20:19:45.047Z,12.30
2019-02-17T20:22:13.387Z,17.57
2019-02-17T20:24:41.772Z,17.33
2019-02-17T20:27:10.158Z,16.60
2019-02-17T20:29:38.514Z,14.47
2019-02-17T20:32:06.869Z,15.10
2019-02-17T20:34:35.229Z,12.30
2019-02-17T20:37:03.578Z,11.30
2019-02-17T20:39:33.098Z,13.37
2019-02-17T20:42:01.446Z,12.73
2019-02-17T20:44:29.786Z,13.50
2019-02-17T20:46:58.145Z,12.40
2019-02-17T20:49:26.595Z,12.17
2019-02-17T20:51:54.950Z,10.23
2019-02-17T20:54:23.277Z,11.67
2019-02-17T20:56:51.626Z,13.63
2019-02-17T20:59:19.965Z,11.43
2019-02-17T21:01:48.308Z,13.90
2019-02-17T21:04:16.651Z,11.73
2019-02-17T21:06:44.997Z,11.37
2019-02-17T21:09:13.341Z,14.70
2019-02-17T21:11:41.759Z,10.40
2019-02-17T21:14:10.098Z,9.90
2019-02-17T21:16:38.441Z,12.67
2019-02-17T21:19:06.787Z,9.30
2019-02-17T21:21:35.122Z,11.30
2019-02-17T21:24:03.461Z,11.50
2019-02-17T21:26:31.877Z,10.07
2019-02-17T21:29:00.221Z,12.10
2019-02-17T21:31:28.575Z,10.13
2019-02-17T21:33:56.913Z,9.53
2019-02-17T21:36:25.315Z,13.13
2019-02-17T21:38:53.653Z,12.50
2019-02-17T21:41:21.994Z,9.03
2019-02-17T21:43:50.344Z,11.23
2019-02-17T21:46:18.686Z,12.73
2019-02-17T21:48:47.103Z,10.23
2019-02-17T21:51:15.450Z,12.47
2019-02-17T21:53:43.813Z,10.87
2019-02-17T21:56:12.149Z,13.30
2019-02-17T21:58:40.555Z,10.40
2019-02-17T22:01:08.906Z,13.53
2019-02-17T22:03:37.317Z,11.57
2019-02-17T22:06:05.751Z,11.37
2019-02-17T22:08:34.167Z,10.23
2019-02-17T22:11:02.501Z,12.30
2019-02-17T22:13:32.009Z,10.77
2019-02-17T22:16:00.356Z,12.43
2019-02-17T22:18:29.770Z,13.73
2019-02-17T22:20:59.589Z,11.03
2019-02-17T22:23:27.946Z,10.70
2019-02-17T22:25:56.285Z,11.27
2019-02-17T22:28:24.630Z,10.17
2019-02-17T22:30:52.978Z,11.20
2019-02-17T22:33:21.326Z,11.77
2019-02-17T22:35:49.677Z,10.20
2019-02-17T22:38:18.022Z,11.50
2019-02-17T22:40:46.373Z,13.70
2019-02-17T22:43:15.938Z,10.97
2019-02-17T22:45:44.308Z,10.77
2019-02-17T22:48:12.645Z,13.13
2019-02-17T22:50:41.022Z,13.83
2019-02-17T22:53:09.358Z,11.67
2019-02-17T22:55:37.715Z,12.23
2019-02-17T22:58:06.069Z,10.93
2019-02-17T23:00:59.595Z,12.23
2019-02-17T23:03:29.611Z,13.43
2019-02-17T23:05:58.039Z,10.93
2019-02-17T23:08:28.793Z,10.17
2019-02-17T23:10:58.217Z,10.00
2019-02-17T23:13:26.550Z,11.83
2019-02-17T23:15:56.498Z,10.80
2019-02-17T23:18:24.838Z,9.87
2019-02-17T23:20:53.202Z,14.63
2019-02-17T23:23:21.540Z,14.30
2019-02-17T23:25:49.878Z,13.40
2019-02-17T23:28:18.285Z,13.43
2019-02-17T23:30:46.637Z,11.87
2019-02-17T23:33:14.978Z,12.50
2019-02-17T23:35:43.323Z,9.87
2019-02-17T23:38:11.657Z,11.73
2019-02-17T23:40:39.990Z,9.87
2019-02-17T23:43:08.325Z,10.23
2019-02-17T23:45:36.665Z,11.30
2019-02-17T23:48:05.040Z,11.10
2019-02-17T23:50:33.391Z,10.77
2019-02-17T23:53:01.742Z,10.63
2019-02-17T23:55:30.081Z,10.33
2019-02-17T23:57:58.425Z,12.67
